createdAt,value
2018-09-30T00:00:26.515Z,49.33
2018-09-30T00:01:01.297Z,49.23
2018-09-30T00:01:36.080Z,48.84
2018-09-30T00:02:10.726Z,49.04
2018-09-30T00:02:45.404Z,49.06
2018-09-30T00:03:20.072Z,49.21
2018-09-30T00:03:54.899Z,49.06
2018-09-30T00:04:29.755Z,49.07
2018-09-30T00:05:04.589Z,48.90
2018-09-30T00:05:39.292Z,48.86
2018-09-30T00:06:13.954Z,48.92
2018-09-30T00:06:48.624Z,49.14
2018-09-30T00:07:23.545Z,48.67
2018-09-30T00:07:58.621Z,48.94
2018-09-30T00:08:33.356Z,48.58
2018-09-30T00:09:08.921Z,48.98
2018-09-30T00:09:43.532Z,48.70
2018-09-30T00:10:18.232Z,48.81
2018-09-30T00:10:52.987Z,48.58
2018-09-30T00:11:27.812Z,48.97
2018-09-30T00:12:03.575Z,48.75
2018-09-30T00:12:38.688Z,48.56
2018-09-30T00:13:13.325Z,48.50
2018-09-30T00:13:47.961Z,48.58
2018-09-30T00:14:22.802Z,48.89
2018-09-30T00:14:57.650Z,48.91
2018-09-30T00:15:32.467Z,48.87
2018-09-30T00:16:07.572Z,48.76
2018-09-30T00:16:42.350Z,48.16
2018-09-30T00:17:17.048Z,48.40
2018-09-30T00:17:52.660Z,48.23
2018-09-30T00:18:27.279Z,48.42
2018-09-30T00:19:02.268Z,48.45
2018-09-30T00:19:37.276Z,48.72
2018-09-30T00:20:12.093Z,48.42
2018-09-30T00:20:46.785Z,48.15
2018-09-30T00:21:21.429Z,48.29
2018-09-30T00:21:56.229Z,48.20
2018-09-30T00:22:31.310Z,48.31
2018-09-30T00:23:06.024Z,48.40
2018-09-30T00:23:45.924Z,48.54
2018-09-30T00:24:26.419Z,48.31
2018-09-30T00:25:06.280Z,48.52
2018-09-30T00:25:46.376Z,48.76
2018-09-30T00:26:26.329Z,48.66
2018-09-30T00:27:02.641Z,48.97
2018-09-30T00:27:37.604Z,48.89
2018-09-30T00:28:12.326Z,48.84
2018-09-30T00:28:47.354Z,48.21
2018-09-30T00:29:22.489Z,48.34
2018-09-30T00:29:57.303Z,48.15
2018-09-30T00:30:32.044Z,47.98
2018-09-30T00:31:07.004Z,48.33
2018-09-30T00:31:41.888Z,48.36
2018-09-30T00:32:16.496Z,48.34
2018-09-30T00:32:51.525Z,48.07
2018-09-30T00:33:26.433Z,48.44
2018-09-30T00:34:06.581Z,48.03
2018-09-30T00:34:41.336Z,47.83
2018-09-30T00:35:15.962Z,48.02
2018-09-30T00:35:50.619Z,48.32
2018-09-30T00:36:25.558Z,48.04
2018-09-30T00:37:00.971Z,48.21
2018-09-30T00:37:35.700Z,48.01
2018-09-30T00:38:10.358Z,48.40
2018-09-30T00:38:45.099Z,48.12
2018-09-30T00:39:19.740Z,48.30
2018-09-30T00:39:54.804Z,48.52
2018-09-30T00:40:29.782Z,48.20
2018-09-30T00:41:05.288Z,48.10
2018-09-30T00:41:40.012Z,48.31
2018-09-30T00:42:14.727Z,48.66
2018-09-30T00:42:49.485Z,48.77
2018-09-30T00:43:24.346Z,48.05
2018-09-30T00:43:59.070Z,48.23
2018-09-30T00:44:33.820Z,48.50
2018-09-30T00:45:09.187Z,48.93
2018-09-30T00:45:43.817Z,48.76
2018-09-30T00:46:18.545Z,49.05
2018-09-30T00:46:53.782Z,48.71
2018-09-30T00:47:28.868Z,48.87
2018-09-30T00:48:03.760Z,48.98
2018-09-30T00:48:38.478Z,49.01
2018-09-30T00:49:12.621Z,49.11
2018-09-30T00:49:47.352Z,49.16
2018-09-30T00:50:21.978Z,49.31
2018-09-30T00:50:57.001Z,48.86
2018-09-30T00:51:31.696Z,48.77
2018-09-30T00:52:06.491Z,48.77
2018-09-30T00:52:41.098Z,49.21
2018-09-30T00:53:15.710Z,49.01
2018-09-30T00:53:50.337Z,48.88
2018-09-30T00:54:25.143Z,48.41
2018-09-30T00:54:59.851Z,48.44
2018-09-30T00:55:41.086Z,48.64
2018-09-30T00:56:15.821Z,49.11
2018-09-30T00:56:50.443Z,49.41
2018-09-30T00:57:25.358Z,49.30
2018-09-30T00:58:00.050Z,49.46
2018-09-30T00:58:34.754Z,49.11
2018-09-30T00:59:09.714Z,49.22
2018-09-30T00:59:44.465Z,49.41
2018-09-30T01:00:19.101Z,49.78
2018-09-30T01:00:53.856Z,49.58
2018-09-30T01:01:28.628Z,49.33
2018-09-30T01:02:03.557Z,49.54
2018-09-30T01:02:38.386Z,49.09
2018-09-30T01:03:13.032Z,49.41
2018-09-30T01:03:47.669Z,49.27
2018-09-30T01:04:22.792Z,49.69
2018-09-30T01:04:57.593Z,50.03
2018-09-30T01:05:32.354Z,49.53
2018-09-30T01:06:07.728Z,49.65
2018-09-30T01:06:42.367Z,49.62
2018-09-30T01:07:17.058Z,49.72
2018-09-30T01:07:51.732Z,49.89
2018-09-30T01:08:26.614Z,50.19
2018-09-30T01:09:01.396Z,50.08
2018-09-30T01:09:36.073Z,50.12
2018-09-30T01:10:10.710Z,50.06
2018-09-30T01:10:45.321Z,50.05
2018-09-30T01:11:20.200Z,50.08
2018-09-30T01:11:55.124Z,49.98
2018-09-30T01:12:29.949Z,49.77
2018-09-30T01:13:04.814Z,49.90
2018-09-30T01:13:39.490Z,49.94
2018-09-30T01:14:14.298Z,49.81
2018-09-30T01:14:49.073Z,50.07
2018-09-30T01:15:23.816Z,49.79
2018-09-30T01:15:58.879Z,49.60
2018-09-30T01:16:34.607Z,49.69
2018-09-30T01:17:09.267Z,49.68
2018-09-30T01:17:43.883Z,49.36
2018-09-30T01:18:18.592Z,49.64
2018-09-30T01:18:53.595Z,49.93
2018-09-30T01:19:28.378Z,49.77
2018-09-30T01:20:03.129Z,49.92
2018-09-30T01:20:38.026Z,49.78
2018-09-30T01:21:12.678Z,49.99
2018-09-30T01:21:47.465Z,49.72
2018-09-30T01:22:22.126Z,49.99
2018-09-30T01:22:56.988Z,50.04
2018-09-30T01:23:31.752Z,49.62
2018-09-30T01:24:06.449Z,49.61
2018-09-30T01:24:41.108Z,49.82
2018-09-30T01:25:15.771Z,49.37
2018-09-30T01:25:50.492Z,49.67
2018-09-30T01:26:25.354Z,49.59
2018-09-30T01:27:00.171Z,49.34
2018-09-30T01:27:34.791Z,49.44
2018-09-30T01:28:15.872Z,49.63
2018-09-30T01:28:50.509Z,49.40
2018-09-30T01:29:25.570Z,49.56
2018-09-30T01:30:00.334Z,49.70
2018-09-30T01:31:40.504Z,49.63
2018-09-30T01:32:15.229Z,49.78
2018-09-30T01:32:49.884Z,49.58
2018-09-30T01:33:24.768Z,49.40
2018-09-30T01:33:59.744Z,49.54
2018-09-30T01:34:34.479Z,49.83
2018-09-30T01:35:08.883Z,49.96
2018-09-30T01:35:43.638Z,49.75
2018-09-30T01:36:18.317Z,49.84
2018-09-30T01:36:53.188Z,49.64
2018-09-30T01:37:27.917Z,49.18
2018-09-30T01:38:02.627Z,49.72
2018-09-30T01:38:37.317Z,49.48
2018-09-30T01:39:12.052Z,49.65
2018-09-30T01:39:46.706Z,49.72
2018-09-30T01:40:21.412Z,49.90
2018-09-30T01:40:56.330Z,49.75
2018-09-30T01:41:31.139Z,49.66
2018-09-30T01:42:05.866Z,49.77
2018-09-30T01:42:40.647Z,49.98
2018-09-30T01:43:15.284Z,49.81
2018-09-30T01:43:50.046Z,50.04
2018-09-30T01:44:24.836Z,50.10
2018-09-30T01:44:59.797Z,50.12
2018-09-30T01:45:34.475Z,49.55
2018-09-30T01:46:09.419Z,49.76
2018-09-30T01:46:44.131Z,50.00
2018-09-30T01:47:18.812Z,50.05
2018-09-30T01:47:53.652Z,50.01
2018-09-30T01:48:28.634Z,49.78
2018-09-30T01:49:03.315Z,49.60
2018-09-30T01:49:37.980Z,49.74
2018-09-30T01:50:12.607Z,50.04
2018-09-30T01:50:47.290Z,49.77
2018-09-30T01:51:21.944Z,49.69
2018-09-30T01:52:07.879Z,49.65
2018-09-30T01:52:57.502Z,49.33
2018-09-30T01:53:32.492Z,49.79
2018-09-30T01:54:07.587Z,49.37
2018-09-30T01:54:42.256Z,49.32
2018-09-30T01:55:16.933Z,49.65
2018-09-30T01:55:51.738Z,49.80
2018-09-30T01:56:26.530Z,49.82
2018-09-30T01:57:01.648Z,49.97
2018-09-30T01:57:36.730Z,49.93
2018-09-30T01:58:11.393Z,50.23
2018-09-30T01:58:46.025Z,50.13
2018-09-30T01:59:20.760Z,50.12
2018-09-30T01:59:55.619Z,49.94
2018-09-30T02:00:30.628Z,50.28
2018-09-30T02:01:05.354Z,50.33
2018-09-30T02:01:39.552Z,50.23
2018-09-30T02:02:14.334Z,50.39
2018-09-30T02:02:49.184Z,50.18
2018-09-30T02:03:23.975Z,50.53
2018-09-30T02:03:58.702Z,50.41
2018-09-30T02:04:33.468Z,50.27
2018-09-30T02:05:08.665Z,50.36
2018-09-30T02:05:42.845Z,50.04
2018-09-30T02:06:17.888Z,50.30
2018-09-30T02:06:52.576Z,50.60
2018-09-30T02:07:27.498Z,50.49
2018-09-30T02:08:02.361Z,50.49
2018-09-30T02:08:37.234Z,50.33
2018-09-30T02:09:11.897Z,50.81
2018-09-30T02:09:46.538Z,50.34
2018-09-30T02:10:21.254Z,49.69
2018-09-30T02:10:56.365Z,50.08
2018-09-30T02:11:31.212Z,50.41
2018-09-30T02:12:05.903Z,50.57
2018-09-30T02:12:40.602Z,50.51
2018-09-30T02:13:15.247Z,50.38
2018-09-30T02:13:49.889Z,50.59
2018-09-30T02:14:24.723Z,50.68
2018-09-30T02:14:59.444Z,50.69
2018-09-30T02:15:34.175Z,50.53
2018-09-30T02:16:08.864Z,50.19
2018-09-30T02:16:43.549Z,50.75
2018-09-30T02:17:18.195Z,50.57
2018-09-30T02:17:52.875Z,50.77
2018-09-30T02:18:27.998Z,50.72
2018-09-30T02:19:02.720Z,51.08
2018-09-30T02:19:37.385Z,50.97
2018-09-30T02:20:12.039Z,51.34
2018-09-30T02:20:46.705Z,50.81
2018-09-30T02:21:21.723Z,50.72
2018-09-30T02:21:56.587Z,50.46
2018-09-30T02:22:31.315Z,50.67
2018-09-30T02:23:06.128Z,50.60
2018-09-30T02:23:40.795Z,50.31
2018-09-30T02:24:15.443Z,50.14
2018-09-30T02:24:50.118Z,49.75
2018-09-30T02:25:25.092Z,50.57
2018-09-30T02:25:59.926Z,50.28
2018-09-30T02:26:34.685Z,50.35
2018-09-30T02:27:08.831Z,51.07
2018-09-30T02:27:43.648Z,50.83
2018-09-30T02:28:18.288Z,51.12
2018-09-30T02:28:53.257Z,50.57
2018-09-30T02:29:28.067Z,50.79
2018-09-30T02:30:03.317Z,50.77
2018-09-30T02:30:37.529Z,50.78
2018-09-30T02:31:11.706Z,50.80
2018-09-30T02:31:45.875Z,50.89
2018-09-30T02:32:21.891Z,50.76
2018-09-30T02:32:56.657Z,51.14
2018-09-30T02:33:31.552Z,51.11
2018-09-30T02:34:06.316Z,51.02
2018-09-30T02:34:40.940Z,51.27
2018-09-30T02:35:15.952Z,51.08
2018-09-30T02:35:50.691Z,51.76
2018-09-30T02:36:25.553Z,51.32
2018-09-30T02:37:00.291Z,51.60
2018-09-30T02:37:35.096Z,51.37
2018-09-30T02:38:10.383Z,50.96
2018-09-30T02:38:45.087Z,50.74
2018-09-30T02:39:19.741Z,50.88
2018-09-30T02:39:54.503Z,51.47
2018-09-30T02:40:29.885Z,50.73
2018-09-30T02:41:04.884Z,50.96
2018-09-30T02:41:39.664Z,51.10
2018-09-30T02:42:14.944Z,50.83
2018-09-30T02:42:49.574Z,50.47
2018-09-30T02:43:24.402Z,50.93
2018-09-30T02:43:59.108Z,51.12
2018-09-30T02:44:33.840Z,51.61
2018-09-30T02:45:08.413Z,51.28
2018-09-30T02:45:43.053Z,51.41
2018-09-30T02:46:17.759Z,51.48
2018-09-30T02:46:52.442Z,51.80
2018-09-30T02:47:27.205Z,51.43
2018-09-30T02:48:02.005Z,51.46
2018-09-30T02:48:36.976Z,51.55
2018-09-30T02:49:11.738Z,51.24
2018-09-30T02:49:46.393Z,51.69
2018-09-30T02:50:21.083Z,51.44
2018-09-30T02:50:55.835Z,51.60
2018-09-30T02:51:30.545Z,51.45
2018-09-30T02:52:05.364Z,51.44
2018-09-30T02:52:40.092Z,51.66
2018-09-30T02:53:14.816Z,51.35
2018-09-30T02:53:49.492Z,51.72
2018-09-30T02:54:24.390Z,51.49
2018-09-30T02:54:59.268Z,51.37
2018-09-30T02:55:33.998Z,51.42
2018-09-30T02:56:09.037Z,51.34
2018-09-30T02:56:43.713Z,51.26
2018-09-30T02:57:18.399Z,51.46
2018-09-30T02:57:53.082Z,52.11
2018-09-30T02:58:28.326Z,51.58
2018-09-30T02:59:03.287Z,51.81
2018-09-30T02:59:37.928Z,51.49
2018-09-30T03:00:13.009Z,51.81
2018-09-30T03:00:47.668Z,51.82
2018-09-30T03:01:22.361Z,51.60
2018-09-30T03:01:57.411Z,51.73
2018-09-30T03:02:32.224Z,51.76
2018-09-30T03:03:07.064Z,51.79
2018-09-30T03:03:41.809Z,51.87
2018-09-30T03:04:16.814Z,51.82
2018-09-30T03:04:51.639Z,51.69
2018-09-30T03:05:26.759Z,52.09
2018-09-30T03:06:01.538Z,51.54
2018-09-30T03:06:41.712Z,51.94
2018-09-30T03:07:21.711Z,51.71
2018-09-30T03:09:00.424Z,51.56
2018-09-30T03:09:35.140Z,52.14
2018-09-30T03:10:10.186Z,51.94
2018-09-30T03:10:44.845Z,52.05
2018-09-30T03:11:19.508Z,52.16
2018-09-30T03:11:54.402Z,52.61
2018-09-30T03:12:29.246Z,52.83
2018-09-30T03:13:04.056Z,52.26
2018-09-30T03:13:38.697Z,51.96
2018-09-30T03:14:14.836Z,52.35
2018-09-30T03:14:49.468Z,51.91
2018-09-30T03:15:24.398Z,51.62
2018-09-30T03:15:59.136Z,51.82
2018-09-30T03:16:33.919Z,51.62
2018-09-30T03:17:08.570Z,51.74
2018-09-30T03:17:43.224Z,52.05
2018-09-30T03:18:18.029Z,51.84
2018-09-30T03:18:52.729Z,51.93
2018-09-30T03:19:27.785Z,52.10
2018-09-30T03:20:02.751Z,51.70
2018-09-30T03:20:37.412Z,51.37
2018-09-30T03:21:12.047Z,51.30
2018-09-30T03:21:46.692Z,51.33
2018-09-30T03:22:21.357Z,51.93
2018-09-30T03:22:56.102Z,51.97
2018-09-30T03:23:30.847Z,52.52
2018-09-30T03:24:05.524Z,51.84
2018-09-30T03:24:40.193Z,51.67
2018-09-30T03:25:14.958Z,52.29
2018-09-30T03:25:49.865Z,52.13
2018-09-30T03:26:24.833Z,52.32
2018-09-30T03:26:59.577Z,51.57
2018-09-30T03:27:34.265Z,51.90
2018-09-30T03:28:09.049Z,52.33
2018-09-30T03:28:43.733Z,51.24
2018-09-30T03:29:18.571Z,51.32
2018-09-30T03:29:53.248Z,51.63
2018-09-30T03:30:28.169Z,51.82
2018-09-30T03:31:02.968Z,51.87
2018-09-30T03:31:37.745Z,52.74
2018-09-30T03:32:12.426Z,51.88
2018-09-30T03:32:47.411Z,51.59
2018-09-30T03:33:22.072Z,52.15
2018-09-30T03:33:56.935Z,51.83
2018-09-30T03:34:31.627Z,51.60
2018-09-30T03:35:06.486Z,52.28
2018-09-30T03:35:41.256Z,52.33
2018-09-30T03:36:15.985Z,52.14
2018-09-30T03:36:50.688Z,52.22
2018-09-30T03:37:25.568Z,51.71
2018-09-30T03:38:00.444Z,51.94
2018-09-30T03:38:35.148Z,52.08
2018-09-30T03:39:10.200Z,52.35
2018-09-30T03:39:45.307Z,52.18
2018-09-30T03:40:20.139Z,51.97
2018-09-30T03:40:54.952Z,52.11
2018-09-30T03:41:29.941Z,52.08
2018-09-30T03:42:11.293Z,52.12
2018-09-30T03:42:45.921Z,52.14
2018-09-30T03:43:20.612Z,52.46
2018-09-30T03:43:55.535Z,52.60
2018-09-30T03:44:29.810Z,52.34
2018-09-30T03:45:04.534Z,52.55
2018-09-30T03:45:39.177Z,52.02
2018-09-30T03:46:13.840Z,53.14
2018-09-30T03:46:48.480Z,52.92
2018-09-30T03:47:23.160Z,52.51
2018-09-30T03:47:58.015Z,52.96
2018-09-30T03:48:32.779Z,53.16
2018-09-30T03:49:07.671Z,53.08
2018-09-30T03:49:42.318Z,53.46
2018-09-30T03:50:17.215Z,53.40
2018-09-30T03:50:51.996Z,53.13
2018-09-30T03:51:26.975Z,53.47
2018-09-30T03:52:01.793Z,53.18
2018-09-30T03:52:36.620Z,53.77
2018-09-30T03:53:10.844Z,53.34
2018-09-30T03:53:45.500Z,53.05
2018-09-30T03:54:20.211Z,52.57
2018-09-30T03:54:55.037Z,53.36
2018-09-30T03:55:30.001Z,53.13
2018-09-30T03:56:04.704Z,53.36
2018-09-30T03:56:39.614Z,52.19
2018-09-30T03:57:14.440Z,53.48
2018-09-30T03:57:49.080Z,53.82
2018-09-30T03:58:24.290Z,53.77
2018-09-30T03:58:59.341Z,52.83
2018-09-30T03:59:34.143Z,53.44
2018-09-30T04:00:08.864Z,53.70
2018-09-30T04:00:43.640Z,54.35
2018-09-30T04:01:18.448Z,53.95
2018-09-30T04:01:53.354Z,54.21
2018-09-30T04:02:28.149Z,53.90
2018-09-30T04:03:02.987Z,54.37
2018-09-30T04:03:37.684Z,53.74
2018-09-30T04:04:12.372Z,54.46
2018-09-30T04:04:47.318Z,54.17
2018-09-30T04:05:22.072Z,54.12
2018-09-30T04:05:56.913Z,54.22
2018-09-30T04:06:31.820Z,53.84
2018-09-30T04:07:06.654Z,54.76
2018-09-30T04:07:41.294Z,54.56
2018-09-30T04:08:15.937Z,54.56
2018-09-30T04:08:50.594Z,54.54
2018-09-30T04:09:25.642Z,54.39
2018-09-30T04:10:00.548Z,54.86
2018-09-30T04:10:35.377Z,54.29
2018-09-30T04:11:10.034Z,53.76
2018-09-30T04:11:44.660Z,53.80
2018-09-30T04:12:19.322Z,53.80
2018-09-30T04:12:54.489Z,53.69
2018-09-30T04:13:29.196Z,53.75
2018-09-30T04:14:03.936Z,54.02
2018-09-30T04:14:38.576Z,54.34
2018-09-30T04:15:13.263Z,54.02
2018-09-30T04:15:47.910Z,54.27
2018-09-30T04:16:22.664Z,54.00
2018-09-30T04:16:57.543Z,54.05
2018-09-30T04:17:32.399Z,54.72
2018-09-30T04:18:07.253Z,54.96
2018-09-30T04:18:41.884Z,54.50
2018-09-30T04:19:16.568Z,54.77
2018-09-30T04:19:51.196Z,54.46
2018-09-30T04:20:26.077Z,54.69
2018-09-30T04:21:00.804Z,54.92
2018-09-30T04:21:35.486Z,55.11
2018-09-30T04:22:10.122Z,55.10
2018-09-30T04:22:44.753Z,55.67
2018-09-30T04:23:19.398Z,54.87
2018-09-30T04:23:59.417Z,55.11
2018-09-30T04:24:34.143Z,55.55
2018-09-30T04:25:08.788Z,55.31
2018-09-30T04:25:43.525Z,55.11
2018-09-30T04:26:17.668Z,55.25
2018-09-30T04:26:51.861Z,55.84
2018-09-30T04:27:26.368Z,55.24
2018-09-30T04:28:00.586Z,55.60
2018-09-30T04:28:35.597Z,55.45
2018-09-30T04:29:10.314Z,55.47
2018-09-30T04:29:44.939Z,55.65
2018-09-30T04:30:19.732Z,55.36
2018-09-30T04:30:55.415Z,55.86
2018-09-30T04:31:30.622Z,55.71
2018-09-30T04:32:05.869Z,55.27
2018-09-30T04:32:40.492Z,55.85
2018-09-30T04:33:15.247Z,55.38
2018-09-30T04:33:50.119Z,55.57
2018-09-30T04:34:25.507Z,55.04
2018-09-30T04:35:00.735Z,55.30
2018-09-30T04:35:35.792Z,55.29
2018-09-30T04:36:10.720Z,54.91
2018-09-30T04:36:45.594Z,55.35
2018-09-30T04:37:20.302Z,55.10
2018-09-30T04:37:55.377Z,55.59
2018-09-30T04:38:30.433Z,55.44
2018-09-30T04:39:07.853Z,55.39
2018-09-30T04:39:42.489Z,55.12
2018-09-30T04:40:17.172Z,55.22
2018-09-30T04:40:51.796Z,55.98
2018-09-30T04:41:26.698Z,55.34
2018-09-30T04:42:01.657Z,55.83
2018-09-30T04:42:36.412Z,55.75
2018-09-30T04:43:11.409Z,55.53
2018-09-30T04:43:46.073Z,55.51
2018-09-30T04:44:20.688Z,55.44
2018-09-30T04:44:55.434Z,55.48
2018-09-30T04:45:30.265Z,55.53
2018-09-30T04:46:04.978Z,55.71
2018-09-30T04:46:39.592Z,55.46
2018-09-30T04:47:14.236Z,55.60
2018-09-30T04:47:48.877Z,55.90
2018-09-30T04:48:23.555Z,55.60
2018-09-30T04:48:58.391Z,56.22
2018-09-30T04:49:33.201Z,55.50
2018-09-30T04:50:08.673Z,55.96
2018-09-30T04:50:43.434Z,55.73
2018-09-30T04:51:18.095Z,55.73
2018-09-30T04:51:52.318Z,55.28
2018-09-30T04:52:27.301Z,55.08
2018-09-30T04:53:02.056Z,55.31
2018-09-30T04:53:36.688Z,55.60
2018-09-30T04:54:11.332Z,54.92
2018-09-30T04:54:45.989Z,55.60
2018-09-30T04:55:20.917Z,54.79
2018-09-30T04:55:55.662Z,55.27
2018-09-30T04:56:30.402Z,54.94
2018-09-30T04:57:05.052Z,55.62
2018-09-30T04:57:39.766Z,54.92
2018-09-30T04:58:14.446Z,54.91
2018-09-30T04:58:49.113Z,54.98
2018-09-30T04:59:23.821Z,54.75
2018-09-30T04:59:58.544Z,55.31
2018-09-30T05:00:32.702Z,55.16
2018-09-30T05:01:07.713Z,55.67
2018-09-30T05:01:42.428Z,55.68
2018-09-30T05:02:17.048Z,55.78
2018-09-30T05:02:51.722Z,55.40
2018-09-30T05:03:26.636Z,55.93
2018-09-30T05:04:01.361Z,56.02
2018-09-30T05:04:36.073Z,55.54
2018-09-30T05:05:10.732Z,55.40
2018-09-30T05:05:45.387Z,55.27
2018-09-30T05:06:20.180Z,56.01
2018-09-30T05:06:54.998Z,55.85
2018-09-30T05:07:29.765Z,55.59
2018-09-30T05:08:04.580Z,55.64
2018-09-30T05:08:39.208Z,55.95
2018-09-30T05:09:13.360Z,56.02
2018-09-30T05:09:47.990Z,55.79
2018-09-30T05:10:22.815Z,55.50
2018-09-30T05:10:57.954Z,56.12
2018-09-30T05:11:32.752Z,56.22
2018-09-30T05:12:07.441Z,55.85
2018-09-30T05:12:42.396Z,55.72
2018-09-30T05:13:17.033Z,56.07
2018-09-30T05:13:51.685Z,55.99
2018-09-30T05:14:26.727Z,56.31
2018-09-30T05:15:01.527Z,55.55
2018-09-30T05:15:36.242Z,55.78
2018-09-30T05:16:11.086Z,56.16
2018-09-30T05:16:45.962Z,56.30
2018-09-30T05:17:20.637Z,56.42
2018-09-30T05:17:55.735Z,56.08
2018-09-30T05:18:30.650Z,56.22
2018-09-30T05:19:05.309Z,56.17
2018-09-30T05:19:39.946Z,56.56
2018-09-30T05:20:14.588Z,56.08
2018-09-30T05:20:49.272Z,55.88
2018-09-30T05:21:24.183Z,56.46
2018-09-30T05:21:58.885Z,56.55
2018-09-30T05:22:33.652Z,56.05
2018-09-30T05:23:08.296Z,56.02
2018-09-30T05:23:42.941Z,56.10
2018-09-30T05:24:17.895Z,56.48
2018-09-30T05:24:52.618Z,56.03
2018-09-30T05:25:27.541Z,56.52
2018-09-30T05:26:02.314Z,56.00
2018-09-30T05:26:36.996Z,56.29
2018-09-30T05:27:11.608Z,56.61
2018-09-30T05:27:46.240Z,56.93
2018-09-30T05:28:20.867Z,56.58
2018-09-30T05:28:55.784Z,56.92
2018-09-30T05:29:30.613Z,56.25
2018-09-30T05:30:06.236Z,56.15
2018-09-30T05:30:40.897Z,56.42
2018-09-30T05:31:15.573Z,55.87
2018-09-30T05:31:50.377Z,55.87
2018-09-30T05:32:25.209Z,56.34
2018-09-30T05:33:00.108Z,56.00
2018-09-30T05:33:34.804Z,56.26
2018-09-30T05:34:09.509Z,55.48
2018-09-30T05:34:44.139Z,56.04
2018-09-30T05:35:18.753Z,55.33
2018-09-30T05:35:53.520Z,54.71
2018-09-30T05:36:28.307Z,55.48
2018-09-30T05:37:03.236Z,55.55
2018-09-30T05:37:38.027Z,55.89
2018-09-30T05:38:12.640Z,55.47
2018-09-30T05:38:47.413Z,54.97
2018-09-30T05:39:22.410Z,55.17
2018-09-30T05:39:57.420Z,54.77
2018-09-30T05:40:32.164Z,54.62
2018-09-30T05:41:06.964Z,55.60
2018-09-30T05:41:41.709Z,55.71
2018-09-30T05:42:16.310Z,55.08
2018-09-30T05:42:50.926Z,55.14
2018-09-30T05:43:25.786Z,55.43
2018-09-30T05:44:00.728Z,55.13
2018-09-30T05:44:35.400Z,54.63
2018-09-30T05:45:10.076Z,55.71
2018-09-30T05:45:44.731Z,55.75
2018-09-30T05:46:19.377Z,55.45
2018-09-30T05:46:54.038Z,55.64
2018-09-30T05:47:29.077Z,55.08
2018-09-30T05:48:04.172Z,55.64
2018-09-30T05:48:38.892Z,55.53
2018-09-30T05:49:13.622Z,54.71
2018-09-30T05:49:48.450Z,55.23
2018-09-30T05:50:24.104Z,55.13
2018-09-30T05:50:59.052Z,55.20
2018-09-30T05:51:33.776Z,54.31
2018-09-30T05:52:08.561Z,54.17
2018-09-30T05:52:43.293Z,54.40
2018-09-30T05:53:17.956Z,55.30
2018-09-30T05:53:52.680Z,54.89
2018-09-30T05:54:27.597Z,54.61
2018-09-30T05:55:02.468Z,54.91
2018-09-30T05:55:37.209Z,54.96
2018-09-30T05:56:11.888Z,55.22
2018-09-30T05:56:46.540Z,55.19
2018-09-30T05:57:21.195Z,54.92
2018-09-30T05:57:56.392Z,55.17
2018-09-30T05:58:31.723Z,55.33
2018-09-30T05:59:06.689Z,55.09
2018-09-30T05:59:40.884Z,54.71
2018-09-30T06:00:15.548Z,54.94
2018-09-30T06:00:50.470Z,54.55
2018-09-30T06:01:25.325Z,54.75
2018-09-30T06:02:00.112Z,54.62
2018-09-30T06:02:34.882Z,54.70
2018-09-30T06:03:09.495Z,54.66
2018-09-30T06:03:44.161Z,54.90
2018-09-30T06:04:18.776Z,54.77
2018-09-30T06:04:53.915Z,54.79
2018-09-30T06:05:28.862Z,54.50
2018-09-30T06:06:03.643Z,54.58
2018-09-30T06:06:38.373Z,54.50
2018-09-30T06:07:13.022Z,53.73
2018-09-30T06:07:47.665Z,54.25
2018-09-30T06:08:22.351Z,54.25
2018-09-30T06:08:57.390Z,54.27
2018-09-30T06:09:32.498Z,54.25
2018-09-30T06:10:07.938Z,54.46
2018-09-30T06:10:42.570Z,53.99
2018-09-30T06:11:17.252Z,54.30
2018-09-30T06:11:51.950Z,53.99
2018-09-30T06:12:26.746Z,54.45
2018-09-30T06:13:01.600Z,54.17
2018-09-30T06:13:36.275Z,53.93
2018-09-30T06:14:11.256Z,54.56
2018-09-30T06:14:46.075Z,54.29
2018-09-30T06:15:20.765Z,53.94
2018-09-30T06:15:55.768Z,54.38
2018-09-30T06:16:30.775Z,54.13
2018-09-30T06:17:05.391Z,54.02
2018-09-30T06:17:40.237Z,53.47
2018-09-30T06:18:14.872Z,53.26
2018-09-30T06:18:49.703Z,53.67
2018-09-30T06:19:24.816Z,53.73
2018-09-30T06:20:00.057Z,52.92
2018-09-30T06:20:34.938Z,53.03
2018-09-30T06:21:09.816Z,53.25
2018-09-30T06:21:44.962Z,53.09
2018-09-30T06:22:19.781Z,52.90
2018-09-30T06:22:54.804Z,53.31
2018-09-30T06:23:29.618Z,53.67
2018-09-30T06:24:04.565Z,53.43
2018-09-30T06:24:39.636Z,53.33
2018-09-30T06:25:14.377Z,53.33
2018-09-30T06:25:49.252Z,53.75
2018-09-30T06:26:24.199Z,53.47
2018-09-30T06:26:59.544Z,53.37
2018-09-30T06:27:34.390Z,53.28
2018-09-30T06:28:09.129Z,53.63
2018-09-30T06:28:43.806Z,52.85
2018-09-30T06:29:18.615Z,53.38
2018-09-30T06:29:53.350Z,52.78
2018-09-30T06:30:28.299Z,53.34
2018-09-30T06:31:03.415Z,53.21
2018-09-30T06:31:38.242Z,53.08
2018-09-30T06:32:13.198Z,52.98
2018-09-30T06:32:48.080Z,52.99
2018-09-30T06:33:23.346Z,52.97
2018-09-30T06:33:58.369Z,52.87
2018-09-30T06:34:33.197Z,52.74
2018-09-30T06:35:07.942Z,52.36
2018-09-30T06:35:42.606Z,52.66
2018-09-30T06:36:17.333Z,52.44
2018-09-30T06:36:52.155Z,52.90
2018-09-30T06:37:27.315Z,52.18
2018-09-30T06:38:02.534Z,52.32
2018-09-30T06:38:37.330Z,52.68
2018-09-30T06:39:12.139Z,52.51
2018-09-30T06:39:46.802Z,52.18
2018-09-30T06:40:21.792Z,51.80
2018-09-30T06:40:56.988Z,52.27
2018-09-30T06:41:31.887Z,52.01
2018-09-30T06:42:06.974Z,52.20
2018-09-30T06:42:41.639Z,52.35
2018-09-30T06:43:16.269Z,52.39
2018-09-30T06:43:50.984Z,52.19
2018-09-30T06:44:26.173Z,52.05
2018-09-30T06:45:01.155Z,51.84
2018-09-30T06:45:35.971Z,52.01
2018-09-30T06:46:10.868Z,52.15
2018-09-30T06:46:45.555Z,51.90
2018-09-30T06:47:20.312Z,51.87
2018-09-30T06:47:55.321Z,51.86
2018-09-30T06:48:30.289Z,51.84
2018-09-30T06:49:05.308Z,51.73
2018-09-30T06:49:40.308Z,51.88
2018-09-30T06:50:15.021Z,51.82
2018-09-30T06:50:49.804Z,51.70
2018-09-30T06:51:24.984Z,51.31
2018-09-30T06:51:59.867Z,51.35
2018-09-30T06:52:34.866Z,51.48
2018-09-30T06:53:09.510Z,51.23
2018-09-30T06:53:44.126Z,51.49
2018-09-30T06:54:18.736Z,51.36
2018-09-30T06:54:53.734Z,51.31
2018-09-30T06:55:28.709Z,51.13
2018-09-30T06:56:03.576Z,51.07
2018-09-30T06:56:38.208Z,50.78
2018-09-30T06:57:13.245Z,50.72
2018-09-30T06:57:47.889Z,50.82
2018-09-30T06:58:22.723Z,50.94
2018-09-30T06:58:57.635Z,50.84
2018-09-30T06:59:32.508Z,50.61
2018-09-30T07:00:07.210Z,50.22
2018-09-30T07:00:41.808Z,50.26
2018-09-30T07:01:16.435Z,50.46
2018-09-30T07:01:51.190Z,50.57
2018-09-30T07:02:26.008Z,50.43
2018-09-30T07:03:00.887Z,50.43
2018-09-30T07:03:35.528Z,49.91
2018-09-30T07:04:10.143Z,50.31
2018-09-30T07:04:44.803Z,50.28
2018-09-30T07:05:19.679Z,50.25
2018-09-30T07:05:55.026Z,50.28
2018-09-30T07:06:29.841Z,50.61
2018-09-30T07:07:04.535Z,50.60
2018-09-30T07:07:39.212Z,50.69
2018-09-30T07:08:14.131Z,50.64
2018-09-30T07:08:49.236Z,50.54
2018-09-30T07:09:23.961Z,50.82
2018-09-30T07:09:58.681Z,50.58
2018-09-30T07:10:33.544Z,50.92
2018-09-30T07:11:08.169Z,50.75
2018-09-30T07:11:42.787Z,50.82
2018-09-30T07:12:17.393Z,50.64
2018-09-30T07:12:52.070Z,50.95
2018-09-30T07:13:26.845Z,50.87
2018-09-30T07:14:01.597Z,50.20
2018-09-30T07:14:36.353Z,51.04
2018-09-30T07:15:10.968Z,50.62
2018-09-30T07:15:45.660Z,50.93
2018-09-30T07:16:20.295Z,50.97
2018-09-30T07:16:55.121Z,50.65
2018-09-30T07:17:29.975Z,50.65
2018-09-30T07:18:04.610Z,50.54
2018-09-30T07:18:39.260Z,50.41
2018-09-30T07:19:13.879Z,50.58
2018-09-30T07:19:48.487Z,50.82
2018-09-30T07:20:22.652Z,50.73
2018-09-30T07:20:57.388Z,50.82
2018-09-30T07:21:32.072Z,50.85
2018-09-30T07:22:07.111Z,50.67
2018-09-30T07:22:41.762Z,50.88
2018-09-30T07:23:16.592Z,51.01
2018-09-30T07:23:51.205Z,50.72
2018-09-30T07:24:25.912Z,50.64
2018-09-30T07:25:00.613Z,50.78
2018-09-30T07:25:35.248Z,50.28
2018-09-30T07:26:09.870Z,50.17
2018-09-30T07:26:44.528Z,50.12
2018-09-30T07:27:19.165Z,50.16
2018-09-30T07:27:53.860Z,49.84
2018-09-30T07:28:28.807Z,49.71
2018-09-30T07:29:02.989Z,49.98
2018-09-30T07:29:37.684Z,50.02
2018-09-30T07:30:12.339Z,50.31
2018-09-30T07:30:47.044Z,49.99
2018-09-30T07:31:21.644Z,49.65
2018-09-30T07:31:56.404Z,50.02